sensor_id;sensor_type;location;lat;lon;timestamp;P1;durP1;ratioP1;P2;durP2;ratioP2
20699;SDS011;10511;51.232;9.420;2023-08-21T00:02:02;0.60;;;0.60;;
20699;SDS011;10511;51.232;9.420;2023-08-21T00:04:29;0.60;;;0.60;;
20699;SDS011;10511;51.232;9.420;2023-08-21T00:06:56;0.60;;;0.60;;
20699;SDS011;10511;51.232;9.420;2023-08-21T00:09:23;0.60;;;0.60;;
20699;SDS011;10511;51.232;9.420;2023-08-21T00:11:50;0.60;;;0.60;;
20699;SDS011;10511;51.232;9.420;2023-08-21T00:14:19;0.60;;;0.60;;
20699;SDS011;10511;51.232;9.420;2023-08-21T00:16:46;0.67;;;0.67;;
20699;SDS011;10511;51.232;9.420;2023-08-21T00:19:12;0.60;;;0.60;;
20699;SDS011;10511;51.232;9.420;2023-08-21T00:21:39;0.50;;;0.50;;
20699;SDS011;10511;51.232;9.420;2023-08-21T00:24:06;0.60;;;0.60;;
20699;SDS011;10511;51.232;9.420;2023-08-21T00:26:33;0.60;;;0.60;;
20699;SDS011;10511;51.232;9.420;2023-08-21T00:29:00;0.60;;;0.60;;
20699;SDS011;10511;51.232;9.420;2023-08-21T00:31:29;0.60;;;0.60;;
20699;SDS011;10511;51.232;9.420;2023-08-21T00:33:56;0.60;;;0.60;;
20699;SDS011;10511;51.232;9.420;2023-08-21T00:36:22;0.60;;;0.60;;
20699;SDS011;10511;51.232;9.420;2023-08-21T00:38:49;0.60;;;0.60;;
20699;SDS011;10511;51.232;9.420;2023-08-21T00:41:16;0.50;;;0.50;;
20699;SDS011;10511;51.232;9.420;2023-08-21T00:43:45;0.60;;;0.60;;
20699;SDS011;10511;51.232;9.420;2023-08-21T00:46:12;0.60;;;0.60;;
20699;SDS011;10511;51.232;9.420;2023-08-21T00:48:40;0.60;;;0.60;;
20699;SDS011;10511;51.232;9.420;2023-08-21T00:51:08;0.60;;;0.60;;
20699;SDS011;10511;51.232;9.420;2023-08-21T00:53:36;0.60;;;0.60;;
20699;SDS011;10511;51.232;9.420;2023-08-21T00:56:03;0.70;;;0.70;;
20699;SDS011;10511;51.232;9.420;2023-08-21T00:58:30;0.60;;;0.60;;
20699;SDS011;10511;51.232;9.420;2023-08-21T01:00:57;0.60;;;0.60;;
20699;SDS011;10511;51.232;9.420;2023-08-21T01:03:24;0.60;;;0.60;;
20699;SDS011;10511;51.232;9.420;2023-08-21T01:05:53;0.60;;;0.60;;
20699;SDS011;10511;51.232;9.420;2023-08-21T01:08:21;0.60;;;0.60;;
20699;SDS011;10511;51.232;9.420;2023-08-21T01:10:58;0.60;;;0.60;;
20699;SDS011;10511;51.232;9.420;2023-08-21T01:13:34;0.60;;;0.60;;
20699;SDS011;10511;51.232;9.420;2023-08-21T01:16:10;0.60;;;0.60;;
20699;SDS011;10511;51.232;9.420;2023-08-21T01:18:40;0.60;;;0.60;;
20699;SDS011;10511;51.232;9.420;2023-08-21T01:21:09;0.60;;;0.60;;
20699;SDS011;10511;51.232;9.420;2023-08-21T01:23:38;0.60;;;0.60;;
20699;SDS011;10511;51.232;9.420;2023-08-21T01:26:07;0.60;;;0.60;;
20699;SDS011;10511;51.232;9.420;2023-08-21T01:28:34;0.60;;;0.60;;
20699;SDS011;10511;51.232;9.420;2023-08-21T01:31:03;0.60;;;0.60;;
20699;SDS011;10511;51.232;9.420;2023-08-21T01:33:34;0.60;;;0.60;;
20699;SDS011;10511;51.232;9.420;2023-08-21T01:36:06;0.60;;;0.60;;
20699;SDS011;10511;51.232;9.420;2023-08-21T01:38:34;0.60;;;0.60;;
20699;SDS011;10511;51.232;9.420;2023-08-21T01:41:02;0.60;;;0.60;;
20699;SDS011;10511;51.232;9.420;2023-08-21T01:43:29;0.60;;;0.60;;
20699;SDS011;10511;51.232;9.420;2023-08-21T01:45:56;0.60;;;0.60;;
20699;SDS011;10511;51.232;9.420;2023-08-21T01:48:23;0.60;;;0.60;;
20699;SDS011;10511;51.232;9.420;2023-08-21T01:50:50;0.60;;;0.60;;
20699;SDS011;10511;51.232;9.420;2023-08-21T01:53:17;0.60;;;0.60;;
20699;SDS011;10511;51.232;9.420;2023-08-21T01:55:44;0.60;;;0.60;;
20699;SDS011;10511;51.232;9.420;2023-08-21T01:58:12;0.60;;;0.60;;
20699;SDS011;10511;51.232;9.420;2023-08-21T02:00:39;0.60;;;0.60;;
20699;SDS011;10511;51.232;9.420;2023-08-21T02:03:06;0.60;;;0.60;;
20699;SDS011;10511;51.232;9.420;2023-08-21T02:05:37;0.60;;;0.60;;
20699;SDS011;10511;51.232;9.420;2023-08-21T02:08:05;0.60;;;0.60;;
20699;SDS011;10511;51.232;9.420;2023-08-21T02:10:32;0.60;;;0.60;;
20699;SDS011;10511;51.232;9.420;2023-08-21T02:12:59;0.60;;;0.60;;
20699;SDS011;10511;51.232;9.420;2023-08-21T02:15:27;0.63;;;0.63;;
20699;SDS011;10511;51.232;9.420;2023-08-21T02:17:54;0.60;;;0.60;;
20699;SDS011;10511;51.232;9.420;2023-08-21T02:20:21;0.60;;;0.60;;
20699;SDS011;10511;51.232;9.420;2023-08-21T02:22:48;0.60;;;0.60;;
20699;SDS011;10511;51.232;9.420;2023-08-21T02:25:15;0.60;;;0.60;;
20699;SDS011;10511;51.232;9.420;2023-08-21T02:27:42;0.70;;;0.70;;
20699;SDS011;10511;51.232;9.420;2023-08-21T02:30:09;0.60;;;0.60;;
20699;SDS011;10511;51.232;9.420;2023-08-21T02:32:38;0.60;;;0.60;;
20699;SDS011;10511;51.232;9.420;2023-08-21T02:35:06;0.60;;;0.60;;
20699;SDS011;10511;51.232;9.420;2023-08-21T02:37:33;0.60;;;0.60;;
20699;SDS011;10511;51.232;9.420;2023-08-21T02:40:04;0.70;;;0.70;;
20699;SDS011;10511;51.232;9.420;2023-08-21T02:42:33;0.70;;;0.70;;
20699;SDS011;10511;51.232;9.420;2023-08-21T02:45:00;0.70;;;0.70;;
20699;SDS011;10511;51.232;9.420;2023-08-21T02:47:33;0.70;;;0.70;;
20699;SDS011;10511;51.232;9.420;2023-08-21T02:50:02;0.70;;;0.70;;
20699;SDS011;10511;51.232;9.420;2023-08-21T02:52:29;0.60;;;0.60;;
20699;SDS011;10511;51.232;9.420;2023-08-21T02:54:56;0.70;;;0.70;;
20699;SDS011;10511;51.232;9.420;2023-08-21T02:57:23;0.70;;;0.70;;
20699;SDS011;10511;51.232;9.420;2023-08-21T02:59:50;0.70;;;0.70;;
20699;SDS011;10511;51.232;9.420;2023-08-21T03:02:17;0.70;;;0.70;;
20699;SDS011;10511;51.232;9.420;2023-08-21T03:04:44;0.70;;;0.70;;
20699;SDS011;10511;51.232;9.420;2023-08-21T03:07:13;0.70;;;0.70;;
20699;SDS011;10511;51.232;9.420;2023-08-21T03:09:40;0.60;;;0.60;;
20699;SDS011;10511;51.232;9.420;2023-08-21T03:12:08;0.60;;;0.60;;
20699;SDS011;10511;51.232;9.420;2023-08-21T03:14:35;0.60;;;0.60;;
20699;SDS011;10511;51.232;9.420;2023-08-21T03:17:02;0.70;;;0.70;;
20699;SDS011;10511;51.232;9.420;2023-08-21T03:19:28;0.70;;;0.70;;
20699;SDS011;10511;51.232;9.420;2023-08-21T03:21:55;0.60;;;0.60;;
20699;SDS011;10511;51.232;9.420;2023-08-21T03:24:24;0.60;;;0.60;;
20699;SDS011;10511;51.232;9.420;2023-08-21T03:26:51;0.60;;;0.60;;
20699;SDS011;10511;51.232;9.420;2023-08-21T03:29:18;0.60;;;0.60;;
20699;SDS011;10511;51.232;9.420;2023-08-21T03:31:46;0.60;;;0.60;;
20699;SDS011;10511;51.232;9.420;2023-08-21T03:34:15;0.70;;;0.70;;
20699;SDS011;10511;51.232;9.420;2023-08-21T03:36:42;0.60;;;0.60;;
20699;SDS011;10511;51.232;9.420;2023-08-21T03:39:08;0.70;;;0.70;;
20699;SDS011;10511;51.232;9.420;2023-08-21T03:41:37;0.70;;;0.70;;
20699;SDS011;10511;51.232;9.420;2023-08-21T03:44:07;0.60;;;0.60;;
20699;SDS011;10511;51.232;9.420;2023-08-21T03:46:34;0.60;;;0.60;;
20699;SDS011;10511;51.232;9.420;2023-08-21T03:49:01;0.60;;;0.60;;
20699;SDS011;10511;51.232;9.420;2023-08-21T03:51:28;0.70;;;0.70;;
20699;SDS011;10511;51.232;9.420;2023-08-21T03:53:55;0.70;;;0.70;;
20699;SDS011;10511;51.232;9.420;2023-08-21T03:56:22;0.60;;;0.60;;
20699;SDS011;10511;51.232;9.420;2023-08-21T03:58:51;0.60;;;0.60;;
20699;SDS011;10511;51.232;9.420;2023-08-21T04:01:18;0.67;;;0.67;;
20699;SDS011;10511;51.232;9.420;2023-08-21T04:03:45;0.70;;;0.70;;
20699;SDS011;10511;51.232;9.420;2023-08-21T04:06:12;0.60;;;0.60;;
20699;SDS011;10511;51.232;9.420;2023-08-21T04:08:39;0.70;;;0.70;;
20699;SDS011;10511;51.232;9.420;2023-08-21T04:11:06;0.70;;;0.70;;
20699;SDS011;10511;51.232;9.420;2023-08-21T04:13:33;0.70;;;0.70;;
20699;SDS011;10511;51.232;9.420;2023-08-21T04:16:01;0.60;;;0.60;;
20699;SDS011;10511;51.232;9.420;2023-08-21T04:18:28;0.70;;;0.70;;
20699;SDS011;10511;51.232;9.420;2023-08-21T04:20:55;0.60;;;0.60;;
20699;SDS011;10511;51.232;9.420;2023-08-21T04:23:22;0.70;;;0.70;;
20699;SDS011;10511;51.232;9.420;2023-08-21T04:25:49;0.50;;;0.50;;
20699;SDS011;10511;51.232;9.420;2023-08-21T04:28:16;0.60;;;0.60;;
20699;SDS011;10511;51.232;9.420;2023-08-21T04:30:43;0.70;;;0.70;;
20699;SDS011;10511;51.232;9.420;2023-08-21T04:33:11;0.60;;;0.60;;
20699;SDS011;10511;51.232;9.420;2023-08-21T04:35:38;0.70;;;0.70;;
20699;SDS011;10511;51.232;9.420;2023-08-21T04:38:05;0.70;;;0.70;;
20699;SDS011;10511;51.232;9.420;2023-08-21T04:40:33;0.60;;;0.60;;
20699;SDS011;10511;51.232;9.420;2023-08-21T04:43:00;0.60;;;0.60;;
20699;SDS011;10511;51.232;9.420;2023-08-21T04:45:27;0.60;;;0.60;;
20699;SDS011;10511;51.232;9.420;2023-08-21T04:47:54;0.67;;;0.67;;
20699;SDS011;10511;51.232;9.420;2023-08-21T04:50:22;0.60;;;0.60;;
20699;SDS011;10511;51.232;9.420;2023-08-21T04:52:49;0.60;;;0.60;;
20699;SDS011;10511;51.232;9.420;2023-08-21T04:55:16;0.60;;;0.60;;
20699;SDS011;10511;51.232;9.420;2023-08-21T04:57:43;0.70;;;0.70;;
20699;SDS011;10511;51.232;9.420;2023-08-21T05:00:10;0.63;;;0.63;;
20699;SDS011;10511;51.232;9.420;2023-08-21T05:02:37;0.70;;;0.70;;
20699;SDS011;10511;51.232;9.420;2023-08-21T05:05:05;0.60;;;0.60;;
20699;SDS011;10511;51.232;9.420;2023-08-21T05:07:35;0.60;;;0.60;;
20699;SDS011;10511;51.232;9.420;2023-08-21T05:10:02;0.63;;;0.63;;
20699;SDS011;10511;51.232;9.420;2023-08-21T05:12:30;0.70;;;0.70;;
20699;SDS011;10511;51.232;9.420;2023-08-21T05:14:56;0.60;;;0.60;;
20699;SDS011;10511;51.232;9.420;2023-08-21T05:17:24;0.60;;;0.60;;
20699;SDS011;10511;51.232;9.420;2023-08-21T05:19:51;0.60;;;0.60;;
20699;SDS011;10511;51.232;9.420;2023-08-21T05:22:18;0.60;;;0.60;;
20699;SDS011;10511;51.232;9.420;2023-08-21T05:24:47;0.60;;;0.60;;
20699;SDS011;10511;51.232;9.420;2023-08-21T05:27:13;0.60;;;0.60;;
20699;SDS011;10511;51.232;9.420;2023-08-21T05:29:40;0.60;;;0.60;;
20699;SDS011;10511;51.232;9.420;2023-08-21T05:32:07;0.60;;;0.60;;
20699;SDS011;10511;51.232;9.420;2023-08-21T05:34:34;0.60;;;0.60;;
20699;SDS011;10511;51.232;9.420;2023-08-21T05:37:02;0.60;;;0.60;;
20699;SDS011;10511;51.232;9.420;2023-08-21T05:39:29;0.60;;;0.60;;
20699;SDS011;10511;51.232;9.420;2023-08-21T05:41:57;0.60;;;0.60;;
20699;SDS011;10511;51.232;9.420;2023-08-21T05:44:24;0.60;;;0.60;;
20699;SDS011;10511;51.232;9.420;2023-08-21T05:46:51;0.60;;;0.60;;
20699;SDS011;10511;51.232;9.420;2023-08-21T05:49:18;0.60;;;0.60;;
20699;SDS011;10511;51.232;9.420;2023-08-21T05:51:45;0.60;;;0.60;;
20699;SDS011;10511;51.232;9.420;2023-08-21T05:54:12;0.60;;;0.60;;
20699;SDS011;10511;51.232;9.420;2023-08-21T05:56:39;0.53;;;0.53;;
20699;SDS011;10511;51.232;9.420;2023-08-21T05:59:09;0.60;;;0.60;;
20699;SDS011;10511;51.232;9.420;2023-08-21T06:01:36;0.50;;;0.50;;
20699;SDS011;10511;51.232;9.420;2023-08-21T06:04:03;0.50;;;0.50;;
20699;SDS011;10511;51.232;9.420;2023-08-21T06:06:30;0.60;;;0.60;;
20699;SDS011;10511;51.232;9.420;2023-08-21T06:08:57;0.60;;;0.60;;
20699;SDS011;10511;51.232;9.420;2023-08-21T06:11:24;0.60;;;0.60;;
20699;SDS011;10511;51.232;9.420;2023-08-21T06:13:51;0.60;;;0.60;;
20699;SDS011;10511;51.232;9.420;2023-08-21T06:16:19;0.60;;;0.60;;
20699;SDS011;10511;51.232;9.420;2023-08-21T06:18:46;0.50;;;0.50;;
20699;SDS011;10511;51.232;9.420;2023-08-21T06:21:13;0.60;;;0.60;;
20699;SDS011;10511;51.232;9.420;2023-08-21T06:23:40;0.60;;;0.60;;
20699;SDS011;10511;51.232;9.420;2023-08-21T06:26:07;0.60;;;0.60;;
20699;SDS011;10511;51.232;9.420;2023-08-21T06:28:34;0.60;;;0.60;;
20699;SDS011;10511;51.232;9.420;2023-08-21T06:31:01;0.60;;;0.60;;
20699;SDS011;10511;51.232;9.420;2023-08-21T06:33:29;0.60;;;0.60;;
20699;SDS011;10511;51.232;9.420;2023-08-21T06:35:57;0.60;;;0.60;;
20699;SDS011;10511;51.232;9.420;2023-08-21T06:38:23;0.60;;;0.60;;
20699;SDS011;10511;51.232;9.420;2023-08-21T06:40:50;0.60;;;0.60;;
20699;SDS011;10511;51.232;9.420;2023-08-21T06:43:18;0.60;;;0.60;;
20699;SDS011;10511;51.232;9.420;2023-08-21T06:45:46;0.60;;;0.60;;
20699;SDS011;10511;51.232;9.420;2023-08-21T06:48:13;0.60;;;0.60;;
20699;SDS011;10511;51.232;9.420;2023-08-21T06:50:41;0.60;;;0.60;;
20699;SDS011;10511;51.232;9.420;2023-08-21T06:53:08;0.60;;;0.60;;
20699;SDS011;10511;51.232;9.420;2023-08-21T06:55:35;0.60;;;0.60;;
20699;SDS011;10511;51.232;9.420;2023-08-21T06:58:02;0.50;;;0.50;;
20699;SDS011;10511;51.232;9.420;2023-08-21T07:00:29;0.50;;;0.50;;
20699;SDS011;10511;51.232;9.420;2023-08-21T07:02:56;0.53;;;0.53;;
20699;SDS011;10511;51.232;9.420;2023-08-21T07:05:23;0.60;;;0.60;;
20699;SDS011;10511;51.232;9.420;2023-08-21T07:07:52;0.60;;;0.60;;
20699;SDS011;10511;51.232;9.420;2023-08-21T07:10:20;0.50;;;0.50;;
20699;SDS011;10511;51.232;9.420;2023-08-21T07:12:47;0.50;;;0.50;;
20699;SDS011;10511;51.232;9.420;2023-08-21T07:15:14;0.60;;;0.60;;
20699;SDS011;10511;51.232;9.420;2023-08-21T07:17:41;0.60;;;0.60;;
20699;SDS011;10511;51.232;9.420;2023-08-21T07:20:08;0.60;;;0.60;;
20699;SDS011;10511;51.232;9.420;2023-08-21T07:22:36;0.60;;;0.60;;
20699;SDS011;10511;51.232;9.420;2023-08-21T07:25:05;0.60;;;0.60;;
20699;SDS011;10511;51.232;9.420;2023-08-21T07:27:33;0.60;;;0.60;;
20699;SDS011;10511;51.232;9.420;2023-08-21T07:30:00;0.50;;;0.50;;
20699;SDS011;10511;51.232;9.420;2023-08-21T07:32:27;0.60;;;0.60;;
20699;SDS011;10511;51.232;9.420;2023-08-21T07:34:54;0.60;;;0.60;;
20699;SDS011;10511;51.232;9.420;2023-08-21T07:37:20;0.60;;;0.60;;
20699;SDS011;10511;51.232;9.420;2023-08-21T07:39:47;0.60;;;0.60;;
20699;SDS011;10511;51.232;9.420;2023-08-21T07:42:16;0.50;;;0.50;;
20699;SDS011;10511;51.232;9.420;2023-08-21T07:44:43;0.50;;;0.50;;
20699;SDS011;10511;51.232;9.420;2023-08-21T07:47:11;0.60;;;0.60;;
20699;SDS011;10511;51.232;9.420;2023-08-21T07:49:38;0.50;;;0.50;;
20699;SDS011;10511;51.232;9.420;2023-08-21T07:52:05;0.57;;;0.57;;
20699;SDS011;10511;51.232;9.420;2023-08-21T07:54:32;0.60;;;0.60;;
20699;SDS011;10511;51.232;9.420;2023-08-21T07:56:59;0.60;;;0.60;;
20699;SDS011;10511;51.232;9.420;2023-08-21T07:59:27;0.60;;;0.60;;
20699;SDS011;10511;51.232;9.420;2023-08-21T08:01:54;0.60;;;0.60;;
20699;SDS011;10511;51.232;9.420;2023-08-21T08:04:21;0.57;;;0.57;;
20699;SDS011;10511;51.232;9.420;2023-08-21T08:06:48;0.50;;;0.50;;
20699;SDS011;10511;51.232;9.420;2023-08-21T08:09:15;0.50;;;0.50;;
20699;SDS011;10511;51.232;9.420;2023-08-21T08:11:42;0.50;;;0.50;;
20699;SDS011;10511;51.232;9.420;2023-08-21T08:14:09;0.50;;;0.50;;
20699;SDS011;10511;51.232;9.420;2023-08-21T08:16:37;0.50;;;0.50;;
20699;SDS011;10511;51.232;9.420;2023-08-21T08:19:04;0.50;;;0.50;;
20699;SDS011;10511;51.232;9.420;2023-08-21T08:21:31;0.50;;;0.50;;
20699;SDS011;10511;51.232;9.420;2023-08-21T08:23:58;0.50;;;0.50;;
20699;SDS011;10511;51.232;9.420;2023-08-21T08:26:25;0.40;;;0.40;;
20699;SDS011;10511;51.232;9.420;2023-08-21T08:28:52;0.50;;;0.50;;
20699;SDS011;10511;51.232;9.420;2023-08-21T08:31:19;0.57;;;0.57;;
20699;SDS011;10511;51.232;9.420;2023-08-21T08:33:49;0.43;;;0.43;;
20699;SDS011;10511;51.232;9.420;2023-08-21T08:36:17;0.50;;;0.50;;
20699;SDS011;10511;51.232;9.420;2023-08-21T08:38:44;0.50;;;0.50;;
20699;SDS011;10511;51.232;9.420;2023-08-21T08:41:11;0.40;;;0.40;;
20699;SDS011;10511;51.232;9.420;2023-08-21T08:43:44;0.50;;;0.50;;
20699;SDS011;10511;51.232;9.420;2023-08-21T08:46:11;0.50;;;0.50;;
20699;SDS011;10511;51.232;9.420;2023-08-21T08:48:38;0.50;;;0.50;;
20699;SDS011;10511;51.232;9.420;2023-08-21T08:51:07;0.50;;;0.50;;
20699;SDS011;10511;51.232;9.420;2023-08-21T08:53:35;0.50;;;0.50;;
20699;SDS011;10511;51.232;9.420;2023-08-21T08:56:04;0.50;;;0.50;;
20699;SDS011;10511;51.232;9.420;2023-08-21T08:58:30;0.43;;;0.43;;
20699;SDS011;10511;51.232;9.420;2023-08-21T09:00:58;0.50;;;0.50;;
20699;SDS011;10511;51.232;9.420;2023-08-21T09:03:24;0.50;;;0.50;;
20699;SDS011;10511;51.232;9.420;2023-08-21T09:05:52;0.50;;;0.50;;
20699;SDS011;10511;51.232;9.420;2023-08-21T09:08:20;0.50;;;0.50;;
20699;SDS011;10511;51.232;9.420;2023-08-21T09:10:47;0.40;;;0.40;;
20699;SDS011;10511;51.232;9.420;2023-08-21T09:13:14;0.40;;;0.40;;
20699;SDS011;10511;51.232;9.420;2023-08-21T09:15:42;0.50;;;0.50;;
20699;SDS011;10511;51.232;9.420;2023-08-21T09:18:11;0.40;;;0.40;;
20699;SDS011;10511;51.232;9.420;2023-08-21T09:20:40;0.40;;;0.40;;
20699;SDS011;10511;51.232;9.420;2023-08-21T09:23:07;0.40;;;0.40;;
20699;SDS011;10511;51.232;9.420;2023-08-21T09:25:40;0.40;;;0.40;;
20699;SDS011;10511;51.232;9.420;2023-08-21T09:28:08;0.43;;;0.43;;
20699;SDS011;10511;51.232;9.420;2023-08-21T09:30:44;0.40;;;0.40;;
20699;SDS011;10511;51.232;9.420;2023-08-21T09:33:12;0.50;;;0.50;;
20699;SDS011;10511;51.232;9.420;2023-08-21T09:35:39;0.40;;;0.40;;
20699;SDS011;10511;51.232;9.420;2023-08-21T09:38:09;0.40;;;0.40;;
20699;SDS011;10511;51.232;9.420;2023-08-21T09:40:40;0.50;;;0.50;;
20699;SDS011;10511;51.232;9.420;2023-08-21T09:43:08;0.50;;;0.50;;
20699;SDS011;10511;51.232;9.420;2023-08-21T09:45:36;0.40;;;0.40;;
20699;SDS011;10511;51.232;9.420;2023-08-21T09:48:03;0.50;;;0.50;;
20699;SDS011;10511;51.232;9.420;2023-08-21T09:50:31;0.50;;;0.50;;
20699;SDS011;10511;51.232;9.420;2023-08-21T09:52:59;0.40;;;0.40;;
20699;SDS011;10511;51.232;9.420;2023-08-21T09:55:29;0.40;;;0.40;;
20699;SDS011;10511;51.232;9.420;2023-08-21T09:57:59;0.40;;;0.40;;
20699;SDS011;10511;51.232;9.420;2023-08-21T10:00:28;0.40;;;0.40;;
20699;SDS011;10511;51.232;9.420;2023-08-21T10:02:58;0.40;;;0.40;;
20699;SDS011;10511;51.232;9.420;2023-08-21T10:05:28;0.40;;;0.40;;
20699;SDS011;10511;51.232;9.420;2023-08-21T10:07:56;0.50;;;0.50;;
20699;SDS011;10511;51.232;9.420;2023-08-21T10:10:27;0.43;;;0.43;;
20699;SDS011;10511;51.232;9.420;2023-08-21T10:12:55;0.40;;;0.40;;
20699;SDS011;10511;51.232;9.420;2023-08-21T10:15:25;0.40;;;0.40;;
20699;SDS011;10511;51.232;9.420;2023-08-21T10:17:52;0.40;;;0.40;;
20699;SDS011;10511;51.232;9.420;2023-08-21T10:20:20;0.40;;;0.40;;
20699;SDS011;10511;51.232;9.420;2023-08-21T10:22:49;0.40;;;0.40;;
20699;SDS011;10511;51.232;9.420;2023-08-21T10:25:18;0.40;;;0.40;;
20699;SDS011;10511;51.232;9.420;2023-08-21T10:27:49;0.40;;;0.40;;
20699;SDS011;10511;51.232;9.420;2023-08-21T10:30:19;0.50;;;0.50;;
20699;SDS011;10511;51.232;9.420;2023-08-21T10:32:50;0.40;;;0.40;;
20699;SDS011;10511;51.232;9.420;2023-08-21T10:35:19;0.40;;;0.40;;
20699;SDS011;10511;51.232;9.420;2023-08-21T10:38:06;0.40;;;0.40;;
20699;SDS011;10511;51.232;9.420;2023-08-21T10:40:35;0.40;;;0.40;;
20699;SDS011;10511;51.232;9.420;2023-08-21T10:43:03;0.40;;;0.40;;
20699;SDS011;10511;51.232;9.420;2023-08-21T10:45:30;0.40;;;0.40;;
20699;SDS011;10511;51.232;9.420;2023-08-21T10:48:01;0.40;;;0.40;;
20699;SDS011;10511;51.232;9.420;2023-08-21T10:50:29;0.40;;;0.40;;
20699;SDS011;10511;51.232;9.420;2023-08-21T10:52:56;0.40;;;0.40;;
20699;SDS011;10511;51.232;9.420;2023-08-21T10:55:24;0.40;;;0.40;;
20699;SDS011;10511;51.232;9.420;2023-08-21T10:57:51;0.40;;;0.40;;
20699;SDS011;10511;51.232;9.420;2023-08-21T11:00:18;0.40;;;0.40;;
20699;SDS011;10511;51.232;9.420;2023-08-21T11:02:46;0.40;;;0.40;;
20699;SDS011;10511;51.232;9.420;2023-08-21T11:05:16;0.40;;;0.40;;
20699;SDS011;10511;51.232;9.420;2023-08-21T11:07:44;0.40;;;0.40;;
20699;SDS011;10511;51.232;9.420;2023-08-21T11:10:12;0.40;;;0.40;;
20699;SDS011;10511;51.232;9.420;2023-08-21T11:12:48;0.40;;;0.40;;
20699;SDS011;10511;51.232;9.420;2023-08-21T11:15:16;0.40;;;0.40;;
20699;SDS011;10511;51.232;9.420;2023-08-21T11:17:50;0.30;;;0.30;;
20699;SDS011;10511;51.232;9.420;2023-08-21T11:20:19;0.40;;;0.40;;
20699;SDS011;10511;51.232;9.420;2023-08-21T11:22:46;0.40;;;0.40;;
20699;SDS011;10511;51.232;9.420;2023-08-21T11:25:14;0.40;;;0.40;;
20699;SDS011;10511;51.232;9.420;2023-08-21T11:27:41;0.40;;;0.40;;
20699;SDS011;10511;51.232;9.420;2023-08-21T11:30:10;0.40;;;0.40;;
20699;SDS011;10511;51.232;9.420;2023-08-21T11:32:38;0.40;;;0.40;;
20699;SDS011;10511;51.232;9.420;2023-08-21T11:35:06;0.40;;;0.40;;
20699;SDS011;10511;51.232;9.420;2023-08-21T11:37:42;0.30;;;0.30;;
20699;SDS011;10511;51.232;9.420;2023-08-21T11:40:11;0.40;;;0.40;;
20699;SDS011;10511;51.232;9.420;2023-08-21T11:42:39;0.40;;;0.40;;
20699;SDS011;10511;51.232;9.420;2023-08-21T11:45:06;0.40;;;0.40;;
20699;SDS011;10511;51.232;9.420;2023-08-21T11:47:36;0.40;;;0.40;;
20699;SDS011;10511;51.232;9.420;2023-08-21T11:50:03;0.40;;;0.40;;
20699;SDS011;10511;51.232;9.420;2023-08-21T11:52:31;0.40;;;0.40;;
20699;SDS011;10511;51.232;9.420;2023-08-21T11:54:59;0.40;;;0.40;;
20699;SDS011;10511;51.232;9.420;2023-08-21T11:57:27;0.40;;;0.40;;
20699;SDS011;10511;51.232;9.420;2023-08-21T11:59:55;0.40;;;0.40;;
20699;SDS011;10511;51.232;9.420;2023-08-21T12:02:23;0.40;;;0.40;;
20699;SDS011;10511;51.232;9.420;2023-08-21T12:04:54;0.40;;;0.40;;
20699;SDS011;10511;51.232;9.420;2023-08-21T12:07:27;0.40;;;0.40;;
20699;SDS011;10511;51.232;9.420;2023-08-21T12:09:54;0.40;;;0.40;;
20699;SDS011;10511;51.232;9.420;2023-08-21T12:12:22;0.40;;;0.40;;
20699;SDS011;10511;51.232;9.420;2023-08-21T12:14:49;0.40;;;0.40;;
20699;SDS011;10511;51.232;9.420;2023-08-21T12:17:16;0.40;;;0.40;;
20699;SDS011;10511;51.232;9.420;2023-08-21T12:19:43;0.40;;;0.40;;
20699;SDS011;10511;51.232;9.420;2023-08-21T12:22:10;0.40;;;0.40;;
20699;SDS011;10511;51.232;9.420;2023-08-21T12:24:38;0.40;;;0.40;;
20699;SDS011;10511;51.232;9.420;2023-08-21T12:27:06;0.40;;;0.40;;
20699;SDS011;10511;51.232;9.420;2023-08-21T12:29:34;0.40;;;0.40;;
20699;SDS011;10511;51.232;9.420;2023-08-21T12:32:02;0.40;;;0.40;;
20699;SDS011;10511;51.232;9.420;2023-08-21T12:34:31;0.37;;;0.37;;
20699;SDS011;10511;51.232;9.420;2023-08-21T12:36:59;0.40;;;0.40;;
20699;SDS011;10511;51.232;9.420;2023-08-21T12:39:26;0.40;;;0.40;;
20699;SDS011;10511;51.232;9.420;2023-08-21T12:41:53;0.40;;;0.40;;
20699;SDS011;10511;51.232;9.420;2023-08-21T12:44:20;0.40;;;0.40;;
20699;SDS011;10511;51.232;9.420;2023-08-21T12:46:48;0.40;;;0.40;;
20699;SDS011;10511;51.232;9.420;2023-08-21T12:49:16;0.40;;;0.40;;
20699;SDS011;10511;51.232;9.420;2023-08-21T12:51:43;0.40;;;0.40;;
20699;SDS011;10511;51.232;9.420;2023-08-21T12:54:10;0.40;;;0.40;;
20699;SDS011;10511;51.232;9.420;2023-08-21T12:56:36;0.40;;;0.40;;
20699;SDS011;10511;51.232;9.420;2023-08-21T12:59:04;0.40;;;0.40;;
20699;SDS011;10511;51.232;9.420;2023-08-21T13:01:31;0.30;;;0.30;;
20699;SDS011;10511;51.232;9.420;2023-08-21T13:04:00;0.40;;;0.40;;
20699;SDS011;10511;51.232;9.420;2023-08-21T13:06:28;0.40;;;0.40;;
20699;SDS011;10511;51.232;9.420;2023-08-21T13:08:55;0.40;;;0.40;;
20699;SDS011;10511;51.232;9.420;2023-08-21T13:11:22;0.30;;;0.30;;
20699;SDS011;10511;51.232;9.420;2023-08-21T13:13:48;0.40;;;0.40;;
20699;SDS011;10511;51.232;9.420;2023-08-21T13:16:15;0.30;;;0.30;;
20699;SDS011;10511;51.232;9.420;2023-08-21T13:18:43;0.37;;;0.37;;
20699;SDS011;10511;51.232;9.420;2023-08-21T13:21:11;0.40;;;0.40;;
20699;SDS011;10511;51.232;9.420;2023-08-21T13:23:38;0.30;;;0.30;;
20699;SDS011;10511;51.232;9.420;2023-08-21T13:26:05;0.30;;;0.30;;
20699;SDS011;10511;51.232;9.420;2023-08-21T13:28:32;0.30;;;0.30;;
20699;SDS011;10511;51.232;9.420;2023-08-21T13:30:59;0.30;;;0.30;;
20699;SDS011;10511;51.232;9.420;2023-08-21T13:33:26;0.30;;;0.30;;
20699;SDS011;10511;51.232;9.420;2023-08-21T13:35:53;0.30;;;0.30;;
20699;SDS011;10511;51.232;9.420;2023-08-21T13:38:22;0.40;;;0.40;;
20699;SDS011;10511;51.232;9.420;2023-08-21T13:40:49;0.30;;;0.30;;
20699;SDS011;10511;51.232;9.420;2023-08-21T13:43:15;0.30;;;0.30;;
20699;SDS011;10511;51.232;9.420;2023-08-21T13:45:42;0.40;;;0.40;;
20699;SDS011;10511;51.232;9.420;2023-08-21T13:48:09;0.30;;;0.30;;
20699;SDS011;10511;51.232;9.420;2023-08-21T13:50:36;0.30;;;0.30;;
20699;SDS011;10511;51.232;9.420;2023-08-21T13:53:03;0.40;;;0.40;;
20699;SDS011;10511;51.232;9.420;2023-08-21T13:55:31;0.30;;;0.30;;
20699;SDS011;10511;51.232;9.420;2023-08-21T13:57:58;0.40;;;0.40;;
20699;SDS011;10511;51.232;9.420;2023-08-21T14:00:25;0.32;;;0.32;;
20699;SDS011;10511;51.232;9.420;2023-08-21T14:02:53;0.40;;;0.40;;
20699;SDS011;10511;51.232;9.420;2023-08-21T14:05:20;0.30;;;0.30;;
20699;SDS011;10511;51.232;9.420;2023-08-21T14:07:47;0.30;;;0.30;;
20699;SDS011;10511;51.232;9.420;2023-08-21T14:10:14;0.30;;;0.30;;
20699;SDS011;10511;51.232;9.420;2023-08-21T14:12:42;0.40;;;0.40;;
20699;SDS011;10511;51.232;9.420;2023-08-21T14:15:09;0.30;;;0.30;;
20699;SDS011;10511;51.232;9.420;2023-08-21T14:17:37;0.30;;;0.30;;
20699;SDS011;10511;51.232;9.420;2023-08-21T14:20:04;0.30;;;0.30;;
20699;SDS011;10511;51.232;9.420;2023-08-21T14:22:33;0.30;;;0.30;;
20699;SDS011;10511;51.232;9.420;2023-08-21T14:25:00;0.30;;;0.30;;
20699;SDS011;10511;51.232;9.420;2023-08-21T14:27:29;0.30;;;0.30;;
20699;SDS011;10511;51.232;9.420;2023-08-21T14:29:58;0.30;;;0.30;;
20699;SDS011;10511;51.232;9.420;2023-08-21T14:32:25;0.30;;;0.30;;
20699;SDS011;10511;51.232;9.420;2023-08-21T14:34:52;0.30;;;0.30;;
20699;SDS011;10511;51.232;9.420;2023-08-21T14:37:20;0.30;;;0.30;;
20699;SDS011;10511;51.232;9.420;2023-08-21T14:39:48;0.38;;;0.38;;
20699;SDS011;10511;51.232;9.420;2023-08-21T14:42:15;0.40;;;0.40;;
20699;SDS011;10511;51.232;9.420;2023-08-21T14:44:42;0.40;;;0.40;;
20699;SDS011;10511;51.232;9.420;2023-08-21T14:47:11;0.40;;;0.40;;
20699;SDS011;10511;51.232;9.420;2023-08-21T14:49:38;0.40;;;0.40;;
20699;SDS011;10511;51.232;9.420;2023-08-21T14:52:05;0.40;;;0.40;;